"WATCHING THE WEATHER TO PROTECT LIFE AND PROPERTY"


Aviation
Satellite (InfraRed)


KFLL 152353Z 34009KT 10SM FEW030 SCT042 BKN050 24/20 A2997 RMK AO2 SLP147 T02390200 10283 20239 53019
KMCO 160025Z 31008KT 10SM FEW025 FEW180 17/12 A3005 RMK AO2 T01670122
KMIA 152353Z 34010G17KT 10SM FEW040 BKN050 24/20 A2997 RMK AO2 SLP150 T02440200 10289 20244 53017
KTPA 152353Z 32008KT 10SM SCT028 BKN170 17/12 A3007 RMK AO2 SLP180 T01670117 10194 20167 51009
MDPP 160000Z 00000KT 9999 SCT018 26/24 Q1013
MDSD 160000Z 07004KT 9999 FEW016CB FEW018 SCT300 25/24 Q1014 CB/E
MKJS 160000Z 15004KT 9999 FEW022 28/24 Q1012
MTPP 152300Z 08005KT 9000 SCT023CB 27/22 Q1011 A2988 RMK/CB/N/S
MUHA 152355Z 01010KT 290V040 9000 BKN036 25/20 Q1016
MYNN 160000Z VRB02KT 9999 FEW020 27/25 A2995
TAPA 160000Z 09006KT 9999 -SHRA SCT018 26/23 Q1015 NOSIG
TFFF 160030Z AUTO 10011KT 9999 FEW030 SCT050 27/21 Q1014 NOSIG
TFFR 160030Z AUTO 09005KT 9999 FEW040 26/22 Q1015 NOSIG
TIST 152353Z 09010KT 10SM CLR 27/22 A2999 RMK AO2 SLP157 T02720222 10306 20272 53015
TISX 152353Z 05006KT 10SM FEW025 SCT070 26/23 A3000 RMK AO2 SLP157 T02610233 10289 20256 53017
TJSJ 152356Z 00000KT 10SM FEW100 26/23 A2999 RMK AO2 SLP156 T02560228 10283 20256 51013
TKPK 160000Z 06012KT 9999 FEW020 27/23 Q1016
TNCA 160000Z 08015KT 9999 FEW018 28/24 Q1010 NOSIG
TNCB 152355Z AUTO 08014KT 050V120 9999 FEW019/// SCT033/// 28/24 Q1011
TNCC 160000Z AUTO 10014KT 9999 SCT022 28/24 Q1011 NOSIG
TNCE 152355Z AUTO 08010KT 040V120 //// // ///////// 27/23 Q1015 RE//
TNCM 160000Z 08011KT 050V130 9999 FEW018 27/22 Q1015 A3000 NOSIG RMK LGT HZ
TQPF 152300Z 09008KT 9999 FEW019 26/21 Q1016
TUPJ 160000Z 14011KT 10SM FEW020 27/21 A3001 RMK Q1016